createdAt,value
2022-09-25T00:00:10.565Z,100488.34
2022-09-25T00:05:12.944Z,100482.66
2022-09-25T00:10:15.300Z,100476.88
2022-09-25T00:15:18.099Z,100467.66
2022-09-25T00:20:20.877Z,100474.72
2022-09-25T00:25:26.280Z,100477.72
2022-09-25T00:30:28.652Z,100480.16
2022-09-25T00:35:31.054Z,100478.56
2022-09-25T00:40:33.457Z,100481.00
2022-09-25T00:45:35.855Z,100466.56
2022-09-25T00:50:54.127Z,100464.66
2022-09-25T00:55:57.471Z,100465.19
2022-09-25T01:01:00.318Z,100448.31
2022-09-25T01:06:02.925Z,100458.13
2022-09-25T01:11:05.536Z,100443.97
2022-09-25T01:16:10.720Z,100458.38
2022-09-25T01:21:25.131Z,100451.00
2022-09-25T01:27:17.201Z,100452.69
2022-09-25T01:32:26.703Z,100435.22
2022-09-25T01:38:11.453Z,100454.59
2022-09-25T01:43:17.569Z,100451.84
2022-09-25T01:48:24.002Z,100448.84
2022-09-25T01:53:32.591Z,100451.56
2022-09-25T01:58:43.842Z,100441.22
2022-09-25T02:03:52.419Z,100435.22
2022-09-25T02:09:02.211Z,100439.31
2022-09-25T02:14:32.032Z,100430.63
2022-09-25T02:19:52.953Z,100431.13
2022-09-25T02:25:04.102Z,100434.66
2022-09-25T02:30:07.027Z,100415.88
2022-09-25T02:35:09.790Z,100428.69
2022-09-25T02:40:12.215Z,100419.97
2022-09-25T02:45:39.130Z,100418.59
2022-09-25T02:51:29.211Z,100423.22
2022-09-25T02:56:43.428Z,100418.88
2022-09-25T03:01:48.183Z,100418.31
2022-09-25T03:06:51.128Z,100413.72
2022-09-25T03:11:55.212Z,100411.00
2022-09-25T03:16:58.948Z,100405.28
2022-09-25T03:22:02.088Z,100403.09
2022-09-25T03:27:04.490Z,100399.22
2022-09-25T03:32:06.846Z,100396.22
2022-09-25T03:37:09.336Z,100396.75
2022-09-25T03:42:11.724Z,100401.38
2022-09-25T03:47:14.215Z,100397.84
2022-09-25T03:52:16.600Z,100384.53
2022-09-25T03:57:18.943Z,100398.69
2022-09-25T04:02:21.338Z,100411.81
2022-09-25T04:07:24.867Z,100401.97
2022-09-25T04:12:27.191Z,100400.03
2022-09-25T04:17:29.799Z,100404.22
2022-09-25T04:22:32.150Z,100390.81
2022-09-25T04:27:34.555Z,100403.31
2022-09-25T04:32:55.560Z,100397.06
2022-09-25T04:37:57.881Z,100398.13
2022-09-25T04:43:01.686Z,100401.44
2022-09-25T04:48:04.827Z,100399.00
2022-09-25T04:53:07.181Z,100377.72
2022-09-25T04:58:11.209Z,100390.81
2022-09-25T05:03:13.866Z,100391.34
2022-09-25T05:08:16.645Z,100380.16
2022-09-25T05:13:19.099Z,100403.03
2022-09-25T05:18:24.253Z,100404.44
2022-09-25T05:23:26.634Z,100416.97
2022-09-25T05:28:30.513Z,100413.44
2022-09-25T05:33:33.940Z,100405.84
2022-09-25T05:38:38.786Z,100415.91
2022-09-25T05:43:50.297Z,100411.47
2022-09-25T05:48:52.756Z,100420.47
2022-09-25T05:53:55.940Z,100420.16
2022-09-25T05:58:58.834Z,100413.34
2022-09-25T06:04:01.306Z,100416.09
2022-09-25T06:09:03.704Z,100419.09
2022-09-25T06:14:06.032Z,100418.84
2022-09-25T06:19:08.781Z,100415.25
2022-09-25T06:24:11.463Z,100419.88
2022-09-25T06:29:13.900Z,100405.38
2022-09-25T06:34:16.259Z,100408.38
2022-09-25T06:39:18.650Z,100418.97
2022-09-25T06:44:23.062Z,100399.97
2022-09-25T06:49:25.457Z,100405.63
2022-09-25T06:54:31.411Z,100402.91
2022-09-25T06:59:33.821Z,100406.66
2022-09-25T07:04:36.717Z,100412.06
2022-09-25T07:09:39.098Z,100389.91
2022-09-25T07:14:43.171Z,100404.44
2022-09-25T07:19:45.481Z,100406.84
2022-09-25T07:24:47.854Z,100410.56
2022-09-25T07:29:50.241Z,100404.28
2022-09-25T07:34:52.745Z,100378.38
2022-09-25T07:39:55.446Z,100405.41
2022-09-25T07:44:57.901Z,100402.50
2022-09-25T07:50:00.599Z,100407.78
2022-09-25T07:55:03.017Z,100408.03
2022-09-25T08:00:06.214Z,100393.03
2022-09-25T08:05:14.561Z,100397.88
2022-09-25T08:10:17.091Z,100386.09
2022-09-25T08:15:19.486Z,100396.75
2022-09-25T08:20:22.065Z,100375.72
2022-09-25T08:25:24.494Z,100375.28
2022-09-25T08:30:26.876Z,100347.03
2022-09-25T08:35:29.213Z,100371.09
2022-09-25T08:40:32.424Z,100368.13
2022-09-25T08:45:59.870Z,100373.44
2022-09-25T08:51:05.651Z,100382.94
2022-09-25T08:56:20.463Z,100362.94
2022-09-25T09:01:28.108Z,100365.97
2022-09-25T09:06:30.807Z,100356.06
2022-09-25T09:11:37.622Z,100354.97
2022-09-25T09:16:47.791Z,100345.78
2022-09-25T09:22:33.268Z,100343.41
2022-09-25T09:27:54.141Z,100347.16
2022-09-25T09:32:59.504Z,100337.50
2022-09-25T09:38:15.066Z,100328.59
2022-09-25T09:43:57.638Z,100331.59
2022-09-25T09:49:26.662Z,100326.25
2022-09-25T09:55:01.288Z,100321.44
2022-09-25T10:00:08.631Z,100318.13
2022-09-25T10:05:29.631Z,100321.97
2022-09-25T10:10:44.856Z,100314.38
2022-09-25T10:15:52.789Z,100311.47
2022-09-25T10:21:04.419Z,100312.25
2022-09-25T10:26:30.909Z,100306.44
2022-09-25T10:31:40.466Z,100296.75
2022-09-25T10:36:46.163Z,100288.81
2022-09-25T10:41:48.795Z,100291.88
2022-09-25T10:47:09.884Z,100287.47
2022-09-25T10:52:14.153Z,100275.13
2022-09-25T10:57:35.440Z,100266.06
2022-09-25T11:02:41.112Z,100266.69
2022-09-25T11:07:55.841Z,100258.78
2022-09-25T11:12:58.938Z,100252.91
2022-09-25T11:18:01.343Z,100258.75
2022-09-25T11:23:13.400Z,100251.28
2022-09-25T11:28:34.959Z,100242.84
2022-09-25T11:33:44.074Z,100240.50
2022-09-25T11:39:13.618Z,100241.16
2022-09-25T11:44:28.756Z,100234.56
2022-09-25T11:49:34.552Z,100227.91
2022-09-25T11:54:43.825Z,100228.66
2022-09-25T12:00:17.763Z,100213.03
2022-09-25T12:05:48.295Z,100212.50
2022-09-25T12:11:13.749Z,100209.31
2022-09-25T12:16:24.035Z,100210.91
2022-09-25T12:21:34.165Z,100204.78
2022-09-25T12:26:45.921Z,100199.44
2022-09-25T12:32:16.301Z,100199.75
2022-09-25T12:37:27.382Z,100196.94
2022-09-25T12:42:40.803Z,100195.16
2022-09-25T12:47:51.336Z,100195.50
2022-09-25T12:53:06.157Z,100191.69
2022-09-25T12:58:30.126Z,100178.91
2022-09-25T13:04:15.691Z,100175.31
2022-09-25T13:09:25.007Z,100176.47
2022-09-25T13:14:33.180Z,100171.50
2022-09-25T13:19:35.582Z,100164.81
2022-09-25T13:24:55.967Z,100156.19
2022-09-25T13:30:00.952Z,100150.31
2022-09-25T13:35:06.144Z,100147.84
2022-09-25T13:40:36.334Z,100150.53
2022-09-25T13:45:39.819Z,100142.59
2022-09-25T13:50:44.534Z,100129.63
2022-09-25T13:55:56.018Z,100136.16
2022-09-25T14:00:59.849Z,100133.56
2022-09-25T14:06:02.959Z,100123.72
2022-09-25T14:11:09.815Z,100126.94
2022-09-25T14:16:29.397Z,100134.16
2022-09-25T14:21:34.589Z,100126.97
2022-09-25T14:26:36.906Z,100127.00
2022-09-25T14:31:58.399Z,100128.72
2022-09-25T14:37:10.177Z,100124.00
2022-09-25T14:42:16.761Z,100121.47
2022-09-25T14:47:20.559Z,100108.75
2022-09-25T14:52:26.438Z,100111.59
2022-09-25T14:57:32.587Z,100114.56
2022-09-25T15:02:41.841Z,100102.25
2022-09-25T15:07:46.487Z,100093.50
2022-09-25T15:12:49.399Z,100099.56
2022-09-25T15:17:59.005Z,100095.88
2022-09-25T15:23:14.218Z,100081.94
2022-09-25T15:28:19.457Z,100093.16
2022-09-25T15:33:34.096Z,100091.91
2022-09-25T15:38:38.848Z,100080.56
2022-09-25T15:43:41.302Z,100083.81
2022-09-25T15:48:53.529Z,100081.63
2022-09-25T15:53:58.576Z,100088.69
2022-09-25T15:59:07.939Z,100079.97
2022-09-25T16:04:38.664Z,100079.31
2022-09-25T16:09:47.618Z,100076.22
2022-09-25T16:14:50.700Z,100069.22
2022-09-25T16:20:25.038Z,100067.56
2022-09-25T16:25:32.245Z,100070.44
2022-09-25T16:30:35.392Z,100063.13
2022-09-25T16:36:05.235Z,100053.00
2022-09-25T16:41:07.226Z,100058.31
2022-09-25T16:46:20.396Z,100062.16
2022-09-25T16:51:24.227Z,100061.78
2022-09-25T16:56:30.370Z,100050.41
2022-09-25T17:01:32.814Z,100054.19
2022-09-25T17:06:40.921Z,100047.03
2022-09-25T17:11:46.979Z,100048.03
2022-09-25T17:16:53.316Z,100046.47
2022-09-25T17:21:56.285Z,100045.72
2022-09-25T17:26:58.957Z,100047.34
2022-09-25T17:32:01.548Z,100034.44
2022-09-25T17:37:03.944Z,100037.53
2022-09-25T17:42:06.471Z,100036.38
2022-09-25T17:47:10.810Z,100036.13
2022-09-25T17:52:15.219Z,100042.44
2022-09-25T17:57:18.184Z,100036.50
2022-09-25T18:02:20.649Z,100030.50
2022-09-25T18:07:23.380Z,100026.97
2022-09-25T18:12:25.961Z,100038.78
2022-09-25T18:17:28.428Z,100018.28
2022-09-25T18:22:30.893Z,100021.31
2022-09-25T18:27:34.327Z,100019.25
2022-09-25T18:32:36.694Z,100015.56
2022-09-25T18:37:39.009Z,100013.91
2022-09-25T18:42:41.738Z,100013.09
2022-09-25T18:47:44.212Z,100007.16
2022-09-25T18:52:46.669Z,100009.38
2022-09-25T18:57:49.074Z,100009.84
2022-09-25T19:02:51.650Z,100012.50
2022-09-25T19:07:54.961Z,100012.13
2022-09-25T19:12:57.291Z,100021.00
2022-09-25T19:17:59.901Z,100015.41
2022-09-25T19:23:03.147Z,99990.28
2022-09-25T19:28:05.518Z,100003.00
2022-09-25T19:33:07.872Z,100001.53
2022-09-25T19:38:12.751Z,100012.50
2022-09-25T19:43:15.558Z,100008.63
2022-09-25T19:48:18.085Z,100005.53
2022-09-25T19:53:20.694Z,99994.75
2022-09-25T19:58:23.826Z,99993.69
2022-09-25T20:03:26.262Z,99997.97
2022-09-25T20:08:28.780Z,100000.50
2022-09-25T20:13:31.169Z,99995.38
2022-09-25T20:18:33.572Z,99992.41
2022-09-25T20:23:36.431Z,99983.75
2022-09-25T20:28:40.021Z,99993.88
2022-09-25T20:33:43.167Z,99976.03
2022-09-25T20:38:49.955Z,99986.81
2022-09-25T20:43:55.203Z,99982.81
2022-09-25T20:48:58.635Z,99974.41
2022-09-25T20:54:03.354Z,99970.06
2022-09-25T20:59:06.217Z,99967.09
2022-09-25T21:04:08.888Z,99960.59
2022-09-25T21:09:25.793Z,99966.88
2022-09-25T21:14:29.104Z,99967.69
2022-09-25T21:19:32.085Z,99959.25
2022-09-25T21:24:35.254Z,99950.56
2022-09-25T21:29:37.703Z,99956.59
2022-09-25T21:34:40.055Z,99948.66
2022-09-25T21:39:42.406Z,99934.88
2022-09-25T21:44:46.154Z,99932.41
2022-09-25T21:49:49.063Z,99930.81
2022-09-25T21:54:51.688Z,99918.56
2022-09-25T21:59:54.107Z,99914.50
2022-09-25T22:04:56.484Z,99907.69
2022-09-25T22:09:59.179Z,99906.66
2022-09-25T22:15:01.741Z,99905.34
2022-09-25T22:20:05.573Z,99899.06
2022-09-25T22:25:08.711Z,99890.63
2022-09-25T22:30:11.659Z,99884.41
2022-09-25T22:35:14.052Z,99884.41
2022-09-25T22:40:16.495Z,99879.25
2022-09-25T22:45:18.929Z,99887.38
2022-09-25T22:50:21.411Z,99878.44
2022-09-25T22:55:26.285Z,99878.97
2022-09-25T23:00:28.704Z,99875.34
2022-09-25T23:05:31.238Z,99875.56
2022-09-25T23:11:02.593Z,99869.06
2022-09-25T23:15:58.730Z,99866.63
2022-09-25T23:21:01.144Z,99863.09
2022-09-25T23:26:08.814Z,99857.16
2022-09-25T23:31:15.417Z,99849.19
2022-09-25T23:36:23.259Z,99844.03
2022-09-25T23:41:29.134Z,99835.63
2022-09-25T23:46:34.290Z,99835.34
2022-09-25T23:51:37.179Z,99826.28
2022-09-25T23:56:41.180Z,99819.31
